sensor_id;sensor_type;location;lat;lon;timestamp;P1;durP1;ratioP1;P2;durP2;ratioP2
8365;SDS011;4220;42.502;24.188;2023-04-01T00:01:55;21.00;;;13.20;;
8365;SDS011;4220;42.502;24.188;2023-04-01T00:04:22;8.77;;;7.50;;
8365;SDS011;4220;42.502;24.188;2023-04-01T00:06:49;18.37;;;8.77;;
8365;SDS011;4220;42.502;24.188;2023-04-01T00:09:18;16.10;;;8.93;;
8365;SDS011;4220;42.502;24.188;2023-04-01T00:11:45;13.50;;;8.80;;
8365;SDS011;4220;42.502;24.188;2023-04-01T00:14:12;12.27;;;8.67;;
8365;SDS011;4220;42.502;24.188;2023-04-01T00:16:39;14.57;;;9.77;;
8365;SDS011;4220;42.502;24.188;2023-04-01T00:19:05;18.43;;;12.27;;
8365;SDS011;4220;42.502;24.188;2023-04-01T00:21:33;16.53;;;9.40;;
8365;SDS011;4220;42.502;24.188;2023-04-01T00:23:59;9.50;;;7.50;;
8365;SDS011;4220;42.502;24.188;2023-04-01T00:26:28;9.97;;;6.63;;
8365;SDS011;4220;42.502;24.188;2023-04-01T00:28:54;6.77;;;5.80;;
8365;SDS011;4220;42.502;24.188;2023-04-01T00:31:21;11.30;;;7.20;;
8365;SDS011;4220;42.502;24.188;2023-04-01T00:33:48;9.20;;;7.43;;
8365;SDS011;4220;42.502;24.188;2023-04-01T00:36:16;8.57;;;6.10;;
8365;SDS011;4220;42.502;24.188;2023-04-01T00:38:44;12.00;;;9.53;;
8365;SDS011;4220;42.502;24.188;2023-04-01T00:41:12;12.30;;;7.40;;
8365;SDS011;4220;42.502;24.188;2023-04-01T00:43:42;14.57;;;9.83;;
8365;SDS011;4220;42.502;24.188;2023-04-01T00:46:10;14.80;;;9.37;;
8365;SDS011;4220;42.502;24.188;2023-04-01T00:48:38;12.73;;;8.83;;
8365;SDS011;4220;42.502;24.188;2023-04-01T00:51:09;14.40;;;9.30;;
8365;SDS011;4220;42.502;24.188;2023-04-01T00:53:39;17.80;;;12.40;;
8365;SDS011;4220;42.502;24.188;2023-04-01T00:56:10;20.53;;;13.43;;
8365;SDS011;4220;42.502;24.188;2023-04-01T00:58:41;19.07;;;11.83;;
8365;SDS011;4220;42.502;24.188;2023-04-01T01:01:13;20.70;;;12.60;;
8365;SDS011;4220;42.502;24.188;2023-04-01T01:03:41;23.93;;;14.53;;
8365;SDS011;4220;42.502;24.188;2023-04-01T01:06:10;28.10;;;16.53;;
8365;SDS011;4220;42.502;24.188;2023-04-01T01:08:52;24.77;;;14.47;;
8365;SDS011;4220;42.502;24.188;2023-04-01T01:11:35;18.23;;;11.63;;
8365;SDS011;4220;42.502;24.188;2023-04-01T01:14:08;16.40;;;9.43;;
8365;SDS011;4220;42.502;24.188;2023-04-01T01:16:48;11.23;;;8.70;;
8365;SDS011;4220;42.502;24.188;2023-04-01T01:19:27;11.57;;;9.77;;
8365;SDS011;4220;42.502;24.188;2023-04-01T01:22:17;13.43;;;9.73;;
8365;SDS011;4220;42.502;24.188;2023-04-01T01:25:03;14.43;;;10.57;;
8365;SDS011;4220;42.502;24.188;2023-04-01T01:27:54;15.00;;;9.87;;
8365;SDS011;4220;42.502;24.188;2023-04-01T01:33:24;14.87;;;10.43;;
8365;SDS011;4220;42.502;24.188;2023-04-01T01:36:17;16.47;;;11.70;;
8365;SDS011;4220;42.502;24.188;2023-04-01T01:38:47;14.57;;;11.63;;
8365;SDS011;4220;42.502;24.188;2023-04-01T01:41:17;15.30;;;11.43;;
8365;SDS011;4220;42.502;24.188;2023-04-01T01:43:47;16.10;;;12.77;;
8365;SDS011;4220;42.502;24.188;2023-04-01T01:46:19;16.23;;;13.23;;
8365;SDS011;4220;42.502;24.188;2023-04-01T01:48:49;17.07;;;14.47;;
8365;SDS011;4220;42.502;24.188;2023-04-01T01:51:19;18.03;;;15.13;;
8365;SDS011;4220;42.502;24.188;2023-04-01T01:53:47;20.53;;;15.07;;
8365;SDS011;4220;42.502;24.188;2023-04-01T01:56:14;18.90;;;15.67;;
8365;SDS011;4220;42.502;24.188;2023-04-01T01:58:47;18.93;;;15.17;;
8365;SDS011;4220;42.502;24.188;2023-04-01T02:01:19;19.10;;;14.93;;
8365;SDS011;4220;42.502;24.188;2023-04-01T02:03:49;18.70;;;14.80;;
8365;SDS011;4220;42.502;24.188;2023-04-01T02:06:19;19.13;;;15.83;;
8365;SDS011;4220;42.502;24.188;2023-04-01T02:08:49;20.07;;;14.70;;
8365;SDS011;4220;42.502;24.188;2023-04-01T02:11:19;19.50;;;16.90;;
8365;SDS011;4220;42.502;24.188;2023-04-01T02:13:52;23.53;;;17.60;;
8365;SDS011;4220;42.502;24.188;2023-04-01T02:16:23;26.70;;;20.43;;
8365;SDS011;4220;42.502;24.188;2023-04-01T02:18:54;20.93;;;17.57;;
8365;SDS011;4220;42.502;24.188;2023-04-01T02:21:26;21.83;;;18.57;;
8365;SDS011;4220;42.502;24.188;2023-04-01T02:23:57;25.33;;;18.80;;
8365;SDS011;4220;42.502;24.188;2023-04-01T02:26:25;22.63;;;17.67;;
8365;SDS011;4220;42.502;24.188;2023-04-01T02:28:52;18.63;;;16.60;;
8365;SDS011;4220;42.502;24.188;2023-04-01T02:31:20;20.10;;;15.93;;
8365;SDS011;4220;42.502;24.188;2023-04-01T02:33:49;19.10;;;15.57;;
8365;SDS011;4220;42.502;24.188;2023-04-01T02:36:16;18.93;;;14.77;;
8365;SDS011;4220;42.502;24.188;2023-04-01T02:38:45;17.67;;;13.13;;
8365;SDS011;4220;42.502;24.188;2023-04-01T02:41:14;16.17;;;11.53;;
8365;SDS011;4220;42.502;24.188;2023-04-01T02:43:40;16.90;;;11.20;;
8365;SDS011;4220;42.502;24.188;2023-04-01T02:46:07;18.20;;;14.20;;
8365;SDS011;4220;42.502;24.188;2023-04-01T02:48:34;17.90;;;13.67;;
8365;SDS011;4220;42.502;24.188;2023-04-01T02:51:01;17.83;;;13.60;;
8365;SDS011;4220;42.502;24.188;2023-04-01T02:53:28;19.37;;;14.77;;
8365;SDS011;4220;42.502;24.188;2023-04-01T02:55:57;19.53;;;15.43;;
8365;SDS011;4220;42.502;24.188;2023-04-01T02:58:23;21.47;;;16.37;;
8365;SDS011;4220;42.502;24.188;2023-04-01T03:00:50;20.50;;;16.20;;
8365;SDS011;4220;42.502;24.188;2023-04-01T03:03:20;19.30;;;15.90;;
8365;SDS011;4220;42.502;24.188;2023-04-01T03:05:47;21.60;;;15.13;;
8365;SDS011;4220;42.502;24.188;2023-04-01T03:08:14;20.53;;;15.80;;
8365;SDS011;4220;42.502;24.188;2023-04-01T03:10:41;15.17;;;13.57;;
8365;SDS011;4220;42.502;24.188;2023-04-01T03:13:09;16.30;;;13.47;;
8365;SDS011;4220;42.502;24.188;2023-04-01T03:15:36;24.23;;;15.83;;
8365;SDS011;4220;42.502;24.188;2023-04-01T03:18:03;16.27;;;12.87;;
8365;SDS011;4220;42.502;24.188;2023-04-01T03:20:30;15.77;;;11.83;;
8365;SDS011;4220;42.502;24.188;2023-04-01T03:22:57;15.33;;;10.50;;
8365;SDS011;4220;42.502;24.188;2023-04-01T03:25:23;15.63;;;10.30;;
8365;SDS011;4220;42.502;24.188;2023-04-01T03:27:52;15.37;;;11.47;;
8365;SDS011;4220;42.502;24.188;2023-04-01T03:30:20;16.37;;;12.07;;
8365;SDS011;4220;42.502;24.188;2023-04-01T03:32:47;25.57;;;22.87;;
8365;SDS011;4220;42.502;24.188;2023-04-01T03:35:13;26.83;;;23.70;;
8365;SDS011;4220;42.502;24.188;2023-04-01T03:37:40;28.57;;;21.53;;
8365;SDS011;4220;42.502;24.188;2023-04-01T03:40:08;32.83;;;25.43;;
8365;SDS011;4220;42.502;24.188;2023-04-01T03:42:35;19.90;;;14.83;;
8365;SDS011;4220;42.502;24.188;2023-04-01T03:45:03;23.97;;;13.73;;
8365;SDS011;4220;42.502;24.188;2023-04-01T03:47:32;18.80;;;12.40;;
8365;SDS011;4220;42.502;24.188;2023-04-01T03:49:59;18.03;;;13.10;;
8365;SDS011;4220;42.502;24.188;2023-04-01T03:52:25;21.07;;;13.07;;
8365;SDS011;4220;42.502;24.188;2023-04-01T03:54:52;23.50;;;14.97;;
8365;SDS011;4220;42.502;24.188;2023-04-01T03:57:19;13.90;;;10.50;;
8365;SDS011;4220;42.502;24.188;2023-04-01T03:59:46;16.47;;;12.03;;
8365;SDS011;4220;42.502;24.188;2023-04-01T04:02:13;19.10;;;14.87;;
8365;SDS011;4220;42.502;24.188;2023-04-01T04:04:41;18.43;;;15.47;;
8365;SDS011;4220;42.502;24.188;2023-04-01T04:07:08;25.13;;;17.93;;
8365;SDS011;4220;42.502;24.188;2023-04-01T04:09:35;28.17;;;20.43;;
8365;SDS011;4220;42.502;24.188;2023-04-01T04:12:02;27.10;;;20.47;;
8365;SDS011;4220;42.502;24.188;2023-04-01T04:14:30;36.93;;;30.87;;
8365;SDS011;4220;42.502;24.188;2023-04-01T04:16:57;62.10;;;44.20;;
8365;SDS011;4220;42.502;24.188;2023-04-01T04:22:07;20.80;;;14.23;;
8365;SDS011;4220;42.502;24.188;2023-04-01T04:24:34;40.87;;;34.13;;
8365;SDS011;4220;42.502;24.188;2023-04-01T04:27:01;27.67;;;21.13;;
8365;SDS011;4220;42.502;24.188;2023-04-01T04:29:28;26.13;;;19.20;;
8365;SDS011;4220;42.502;24.188;2023-04-01T04:31:55;22.33;;;17.50;;
8365;SDS011;4220;42.502;24.188;2023-04-01T04:34:22;21.33;;;16.13;;
8365;SDS011;4220;42.502;24.188;2023-04-01T04:36:49;13.03;;;9.40;;
8365;SDS011;4220;42.502;24.188;2023-04-01T04:39:17;15.90;;;11.80;;
8365;SDS011;4220;42.502;24.188;2023-04-01T04:41:44;25.07;;;19.40;;
8365;SDS011;4220;42.502;24.188;2023-04-01T04:44:11;21.70;;;15.90;;
8365;SDS011;4220;42.502;24.188;2023-04-01T04:46:38;19.03;;;13.13;;
8365;SDS011;4220;42.502;24.188;2023-04-01T04:49:05;23.07;;;19.03;;
8365;SDS011;4220;42.502;24.188;2023-04-01T04:51:32;24.07;;;17.50;;
8365;SDS011;4220;42.502;24.188;2023-04-01T04:54:00;19.07;;;14.67;;
8365;SDS011;4220;42.502;24.188;2023-04-01T04:56:29;27.70;;;18.17;;
8365;SDS011;4220;42.502;24.188;2023-04-01T04:58:56;25.93;;;17.00;;
8365;SDS011;4220;42.502;24.188;2023-04-01T05:01:23;26.53;;;17.60;;
8365;SDS011;4220;42.502;24.188;2023-04-01T05:03:50;22.17;;;17.10;;
8365;SDS011;4220;42.502;24.188;2023-04-01T05:06:17;20.87;;;15.63;;
8365;SDS011;4220;42.502;24.188;2023-04-01T05:08:45;22.80;;;17.63;;
8365;SDS011;4220;42.502;24.188;2023-04-01T05:11:12;25.07;;;21.03;;
8365;SDS011;4220;42.502;24.188;2023-04-01T05:13:42;75.40;;;44.87;;
8365;SDS011;4220;42.502;24.188;2023-04-01T05:16:11;96.37;;;51.97;;
8365;SDS011;4220;42.502;24.188;2023-04-01T05:18:38;46.53;;;31.50;;
8365;SDS011;4220;42.502;24.188;2023-04-01T05:21:06;35.40;;;25.10;;
8365;SDS011;4220;42.502;24.188;2023-04-01T05:23:34;33.73;;;23.50;;
8365;SDS011;4220;42.502;24.188;2023-04-01T05:26:02;30.47;;;24.13;;
8365;SDS011;4220;42.502;24.188;2023-04-01T05:28:30;30.57;;;22.83;;
8365;SDS011;4220;42.502;24.188;2023-04-01T05:30:59;31.10;;;22.53;;
8365;SDS011;4220;42.502;24.188;2023-04-01T05:33:27;33.47;;;24.57;;
8365;SDS011;4220;42.502;24.188;2023-04-01T05:35:54;42.90;;;31.37;;
8365;SDS011;4220;42.502;24.188;2023-04-01T05:38:20;34.47;;;24.87;;
8365;SDS011;4220;42.502;24.188;2023-04-01T05:40:47;37.70;;;26.50;;
8365;SDS011;4220;42.502;24.188;2023-04-01T05:43:14;42.10;;;25.83;;
8365;SDS011;4220;42.502;24.188;2023-04-01T05:45:41;33.43;;;25.47;;
8365;SDS011;4220;42.502;24.188;2023-04-01T05:48:09;40.70;;;27.87;;
8365;SDS011;4220;42.502;24.188;2023-04-01T05:50:36;31.47;;;22.70;;
8365;SDS011;4220;42.502;24.188;2023-04-01T05:53:03;24.77;;;18.10;;
8365;SDS011;4220;42.502;24.188;2023-04-01T05:55:30;177.97;;;121.87;;
8365;SDS011;4220;42.502;24.188;2023-04-01T05:57:57;277.17;;;189.93;;
8365;SDS011;4220;42.502;24.188;2023-04-01T06:00:24;167.47;;;109.97;;
8365;SDS011;4220;42.502;24.188;2023-04-01T06:02:50;58.63;;;39.67;;
8365;SDS011;4220;42.502;24.188;2023-04-01T06:05:20;64.70;;;45.07;;
8365;SDS011;4220;42.502;24.188;2023-04-01T06:07:48;432.73;;;307.70;;
8365;SDS011;4220;42.502;24.188;2023-04-01T06:10:17;261.87;;;184.53;;
8365;SDS011;4220;42.502;24.188;2023-04-01T06:12:51;290.13;;;198.47;;
8365;SDS011;4220;42.502;24.188;2023-04-01T06:15:30;140.03;;;96.23;;
8365;SDS011;4220;42.502;24.188;2023-04-01T06:21:18;51.47;;;38.37;;
8365;SDS011;4220;42.502;24.188;2023-04-01T06:24:02;40.97;;;33.15;;
8365;SDS011;4220;42.502;24.188;2023-04-01T06:26:45;44.92;;;34.78;;
8365;SDS011;4220;42.502;24.188;2023-04-01T06:29:37;51.30;;;36.85;;
8365;SDS011;4220;42.502;24.188;2023-04-01T06:32:23;65.75;;;38.40;;
8365;SDS011;4220;42.502;24.188;2023-04-01T06:35:15;50.25;;;33.97;;
8365;SDS011;4220;42.502;24.188;2023-04-01T06:38:02;47.40;;;33.35;;
8365;SDS011;4220;42.502;24.188;2023-04-01T06:40:50;53.28;;;34.47;;
8365;SDS011;4220;42.502;24.188;2023-04-01T06:43:43;39.45;;;24.50;;
8365;SDS011;4220;42.502;24.188;2023-04-01T06:46:23;27.80;;;19.73;;
8365;SDS011;4220;42.502;24.188;2023-04-01T06:49:03;24.77;;;16.33;;
8365;SDS011;4220;42.502;24.188;2023-04-01T06:51:39;12.55;;;8.68;;
8365;SDS011;4220;42.502;24.188;2023-04-01T06:54:16;15.23;;;11.90;;
8365;SDS011;4220;42.502;24.188;2023-04-01T06:56:48;14.68;;;10.88;;
8365;SDS011;4220;42.502;24.188;2023-04-01T06:59:21;12.25;;;10.23;;
8365;SDS011;4220;42.502;24.188;2023-04-01T07:01:51;19.48;;;12.88;;
8365;SDS011;4220;42.502;24.188;2023-04-01T07:04:21;12.90;;;9.02;;
8365;SDS011;4220;42.502;24.188;2023-04-01T07:06:52;13.88;;;10.60;;
8365;SDS011;4220;42.502;24.188;2023-04-01T07:09:24;109.68;;;79.75;;
8365;SDS011;4220;42.502;24.188;2023-04-01T07:11:59;73.80;;;54.75;;
8365;SDS011;4220;42.502;24.188;2023-04-01T07:14:30;16.40;;;12.60;;
8365;SDS011;4220;42.502;24.188;2023-04-01T07:17:01;11.43;;;9.18;;
8365;SDS011;4220;42.502;24.188;2023-04-01T07:19:33;10.18;;;7.28;;
8365;SDS011;4220;42.502;24.188;2023-04-01T07:22:10;9.63;;;7.78;;
8365;SDS011;4220;42.502;24.188;2023-04-01T07:24:51;9.90;;;7.07;;
8365;SDS011;4220;42.502;24.188;2023-04-01T07:27:19;11.95;;;6.50;;
8365;SDS011;4220;42.502;24.188;2023-04-01T07:29:46;11.13;;;7.50;;
8365;SDS011;4220;42.502;24.188;2023-04-01T07:32:25;9.45;;;7.03;;
8365;SDS011;4220;42.502;24.188;2023-04-01T07:35:04;14.63;;;7.55;;
8365;SDS011;4220;42.502;24.188;2023-04-01T07:37:39;36.75;;;21.75;;
8365;SDS011;4220;42.502;24.188;2023-04-01T07:40:15;21.27;;;17.02;;
8365;SDS011;4220;42.502;24.188;2023-04-01T07:42:57;16.75;;;10.63;;
8365;SDS011;4220;42.502;24.188;2023-04-01T07:45:36;13.43;;;8.32;;
8365;SDS011;4220;42.502;24.188;2023-04-01T07:48:14;11.63;;;7.35;;
8365;SDS011;4220;42.502;24.188;2023-04-01T07:50:51;11.75;;;9.30;;
8365;SDS011;4220;42.502;24.188;2023-04-01T07:53:26;6.28;;;5.40;;
8365;SDS011;4220;42.502;24.188;2023-04-01T07:56:05;7.90;;;5.85;;
8365;SDS011;4220;42.502;24.188;2023-04-01T07:58:38;8.27;;;6.03;;
8365;SDS011;4220;42.502;24.188;2023-04-01T08:01:17;9.80;;;7.50;;
8365;SDS011;4220;42.502;24.188;2023-04-01T08:03:55;12.10;;;6.68;;
8365;SDS011;4220;42.502;24.188;2023-04-01T08:06:35;12.10;;;7.75;;
8365;SDS011;4220;42.502;24.188;2023-04-01T08:09:08;9.98;;;6.38;;
8365;SDS011;4220;42.502;24.188;2023-04-01T08:11:46;7.43;;;6.13;;
8365;SDS011;4220;42.502;24.188;2023-04-01T08:14:24;11.43;;;8.02;;
8365;SDS011;4220;42.502;24.188;2023-04-01T08:16:56;8.32;;;7.35;;
8365;SDS011;4220;42.502;24.188;2023-04-01T08:19:31;12.95;;;8.75;;
8365;SDS011;4220;42.502;24.188;2023-04-01T08:22:14;11.90;;;8.75;;
8365;SDS011;4220;42.502;24.188;2023-04-01T08:24:46;10.55;;;8.43;;
8365;SDS011;4220;42.502;24.188;2023-04-01T08:27:17;11.85;;;7.65;;
8365;SDS011;4220;42.502;24.188;2023-04-01T08:29:50;8.82;;;5.97;;
8365;SDS011;4220;42.502;24.188;2023-04-01T08:32:25;7.25;;;5.90;;
8365;SDS011;4220;42.502;24.188;2023-04-01T08:35:07;6.95;;;5.15;;
8365;SDS011;4220;42.502;24.188;2023-04-01T08:37:41;6.10;;;4.60;;
8365;SDS011;4220;42.502;24.188;2023-04-01T08:40:18;8.18;;;7.03;;
8365;SDS011;4220;42.502;24.188;2023-04-01T08:43:03;15.25;;;9.70;;
8365;SDS011;4220;42.502;24.188;2023-04-01T08:45:41;67.22;;;32.78;;
8365;SDS011;4220;42.502;24.188;2023-04-01T08:48:23;11.18;;;6.53;;
8365;SDS011;4220;42.502;24.188;2023-04-01T08:51:32;7.75;;;4.80;;
8365;SDS011;4220;42.502;24.188;2023-04-01T08:54:29;6.78;;;4.90;;
8365;SDS011;4220;42.502;24.188;2023-04-01T08:57:13;10.18;;;6.03;;
8365;SDS011;4220;42.502;24.188;2023-04-01T08:59:52;10.55;;;5.90;;
8365;SDS011;4220;42.502;24.188;2023-04-01T09:02:38;6.20;;;4.57;;
8365;SDS011;4220;42.502;24.188;2023-04-01T09:08:19;6.95;;;4.07;;
8365;SDS011;4220;42.502;24.188;2023-04-01T09:11:08;9.38;;;5.25;;
8365;SDS011;4220;42.502;24.188;2023-04-01T09:13:57;10.20;;;5.78;;
8365;SDS011;4220;42.502;24.188;2023-04-01T09:16:58;9.23;;;5.05;;
8365;SDS011;4220;42.502;24.188;2023-04-01T09:19:43;8.63;;;5.03;;
8365;SDS011;4220;42.502;24.188;2023-04-01T09:22:27;9.20;;;5.00;;
8365;SDS011;4220;42.502;24.188;2023-04-01T09:27:56;9.13;;;5.80;;
8365;SDS011;4220;42.502;24.188;2023-04-01T09:30:38;9.43;;;5.60;;
8365;SDS011;4220;42.502;24.188;2023-04-01T09:36:37;7.25;;;5.00;;
8365;SDS011;4220;42.502;24.188;2023-04-01T09:39:18;11.18;;;6.00;;
8365;SDS011;4220;42.502;24.188;2023-04-01T09:41:58;8.05;;;6.05;;
8365;SDS011;4220;42.502;24.188;2023-04-01T09:44:40;10.93;;;6.53;;
8365;SDS011;4220;42.502;24.188;2023-04-01T09:47:20;6.32;;;5.18;;
8365;SDS011;4220;42.502;24.188;2023-04-01T09:50:06;5.90;;;5.22;;
8365;SDS011;4220;42.502;24.188;2023-04-01T09:52:44;6.38;;;5.32;;
8365;SDS011;4220;42.502;24.188;2023-04-01T09:58:32;10.75;;;4.72;;
8365;SDS011;4220;42.502;24.188;2023-04-01T10:01:27;7.30;;;4.75;;
8365;SDS011;4220;42.502;24.188;2023-04-01T10:10:37;14.95;;;8.40;;
8365;SDS011;4220;42.502;24.188;2023-04-01T10:19:49;6.88;;;5.78;;
8365;SDS011;4220;42.502;24.188;2023-04-01T10:25:27;7.75;;;4.85;;
8365;SDS011;4220;42.502;24.188;2023-04-01T10:28:12;7.50;;;4.35;;
8365;SDS011;4220;42.502;24.188;2023-04-01T10:37:32;5.13;;;3.95;;
8365;SDS011;4220;42.502;24.188;2023-04-01T10:40:25;8.57;;;4.53;;
8365;SDS011;4220;42.502;24.188;2023-04-01T10:46:29;6.95;;;5.38;;
8365;SDS011;4220;42.502;24.188;2023-04-01T10:52:19;70.18;;;37.80;;
8365;SDS011;4220;42.502;24.188;2023-04-01T10:54:58;21.05;;;12.20;;
8365;SDS011;4220;42.502;24.188;2023-04-01T10:57:58;6.40;;;4.68;;
8365;SDS011;4220;42.502;24.188;2023-04-01T11:00:57;9.52;;;8.52;;
8365;SDS011;4220;42.502;24.188;2023-04-01T11:03:53;8.45;;;6.18;;
8365;SDS011;4220;42.502;24.188;2023-04-01T11:07:01;9.30;;;5.28;;
8365;SDS011;4220;42.502;24.188;2023-04-01T11:13:26;5.57;;;3.50;;
8365;SDS011;4220;42.502;24.188;2023-04-01T11:19:26;7.57;;;4.28;;
8365;SDS011;4220;42.502;24.188;2023-04-01T11:22:15;7.25;;;5.45;;
8365;SDS011;4220;42.502;24.188;2023-04-01T11:25:11;5.68;;;4.38;;
8365;SDS011;4220;42.502;24.188;2023-04-01T11:28:02;8.15;;;5.80;;
8365;SDS011;4220;42.502;24.188;2023-04-01T11:30:53;10.75;;;5.63;;
8365;SDS011;4220;42.502;24.188;2023-04-01T11:33:33;16.33;;;9.07;;
8365;SDS011;4220;42.502;24.188;2023-04-01T11:39:03;10.38;;;8.15;;
8365;SDS011;4220;42.502;24.188;2023-04-01T11:41:40;10.88;;;5.50;;
8365;SDS011;4220;42.502;24.188;2023-04-01T11:44:17;12.75;;;8.27;;
8365;SDS011;4220;42.502;24.188;2023-04-01T11:46:56;16.77;;;9.10;;
8365;SDS011;4220;42.502;24.188;2023-04-01T11:49:43;14.98;;;9.02;;
8365;SDS011;4220;42.502;24.188;2023-04-01T11:52:30;9.30;;;6.82;;
8365;SDS011;4220;42.502;24.188;2023-04-01T11:55:18;10.55;;;5.90;;
8365;SDS011;4220;42.502;24.188;2023-04-01T11:57:56;7.25;;;5.25;;
8365;SDS011;4220;42.502;24.188;2023-04-01T12:00:47;6.50;;;5.68;;
8365;SDS011;4220;42.502;24.188;2023-04-01T12:06:26;5.97;;;4.75;;
8365;SDS011;4220;42.502;24.188;2023-04-01T12:09:04;7.32;;;3.60;;
8365;SDS011;4220;42.502;24.188;2023-04-01T12:11:41;5.55;;;3.85;;
8365;SDS011;4220;42.502;24.188;2023-04-01T12:14:18;9.50;;;6.45;;
8365;SDS011;4220;42.502;24.188;2023-04-01T12:16:52;8.65;;;6.40;;
8365;SDS011;4220;42.502;24.188;2023-04-01T12:19:27;15.35;;;11.05;;
8365;SDS011;4220;42.502;24.188;2023-04-01T12:22:10;20.63;;;13.88;;
8365;SDS011;4220;42.502;24.188;2023-04-01T12:24:51;9.85;;;5.88;;
8365;SDS011;4220;42.502;24.188;2023-04-01T12:27:31;9.60;;;6.45;;
8365;SDS011;4220;42.502;24.188;2023-04-01T12:30:26;16.27;;;13.70;;
8365;SDS011;4220;42.502;24.188;2023-04-01T12:33:24;19.40;;;11.85;;
8365;SDS011;4220;42.502;24.188;2023-04-01T12:36:06;13.35;;;7.00;;
8365;SDS011;4220;42.502;24.188;2023-04-01T12:38:47;10.90;;;7.63;;
8365;SDS011;4220;42.502;24.188;2023-04-01T12:41:30;14.30;;;8.65;;
8365;SDS011;4220;42.502;24.188;2023-04-01T12:44:16;15.98;;;8.88;;
8365;SDS011;4220;42.502;24.188;2023-04-01T12:49:56;15.55;;;10.35;;
8365;SDS011;4220;42.502;24.188;2023-04-01T12:52:39;6.80;;;5.60;;
8365;SDS011;4220;42.502;24.188;2023-04-01T12:55:22;13.80;;;6.15;;
8365;SDS011;4220;42.502;24.188;2023-04-01T13:01:03;5.97;;;4.80;;
8365;SDS011;4220;42.502;24.188;2023-04-01T13:03:59;8.65;;;6.65;;
8365;SDS011;4220;42.502;24.188;2023-04-01T13:06:53;17.48;;;10.13;;
8365;SDS011;4220;42.502;24.188;2023-04-01T13:09:32;16.85;;;9.98;;
8365;SDS011;4220;42.502;24.188;2023-04-01T13:12:14;15.93;;;11.88;;
8365;SDS011;4220;42.502;24.188;2023-04-01T13:14:59;8.88;;;6.50;;
8365;SDS011;4220;42.502;24.188;2023-04-01T13:17:39;11.30;;;9.05;;
8365;SDS011;4220;42.502;24.188;2023-04-01T13:20:14;11.15;;;7.40;;
8365;SDS011;4220;42.502;24.188;2023-04-01T13:22:50;10.77;;;5.78;;
8365;SDS011;4220;42.502;24.188;2023-04-01T13:25:26;10.18;;;6.05;;
8365;SDS011;4220;42.502;24.188;2023-04-01T13:28:03;8.77;;;6.17;;
8365;SDS011;4220;42.502;24.188;2023-04-01T13:30:38;9.52;;;7.13;;
8365;SDS011;4220;42.502;24.188;2023-04-01T13:33:13;11.13;;;7.25;;
8365;SDS011;4220;42.502;24.188;2023-04-01T13:38:30;10.13;;;7.30;;
8365;SDS011;4220;42.502;24.188;2023-04-01T13:41:11;9.45;;;7.47;;
8365;SDS011;4220;42.502;24.188;2023-04-01T13:43:49;153.02;;;103.53;;
8365;SDS011;4220;42.502;24.188;2023-04-01T13:49:31;16.83;;;11.98;;
8365;SDS011;4220;42.502;24.188;2023-04-01T13:52:22;15.55;;;13.30;;
8365;SDS011;4220;42.502;24.188;2023-04-01T13:58:17;17.05;;;14.48;;
8365;SDS011;4220;42.502;24.188;2023-04-01T14:01:12;15.48;;;12.85;;
8365;SDS011;4220;42.502;24.188;2023-04-01T14:03:56;14.60;;;10.90;;
8365;SDS011;4220;42.502;24.188;2023-04-01T14:06:39;8.23;;;5.70;;
8365;SDS011;4220;42.502;24.188;2023-04-01T14:09:24;4.43;;;3.47;;
8365;SDS011;4220;42.502;24.188;2023-04-01T14:12:12;17.58;;;14.85;;
8365;SDS011;4220;42.502;24.188;2023-04-01T14:14:51;11.10;;;7.93;;
8365;SDS011;4220;42.502;24.188;2023-04-01T14:17:37;7.85;;;3.67;;
8365;SDS011;4220;42.502;24.188;2023-04-01T14:20:22;10.85;;;4.57;;
8365;SDS011;4220;42.502;24.188;2023-04-01T14:23:07;4.45;;;3.30;;
8365;SDS011;4220;42.502;24.188;2023-04-01T14:25:54;6.57;;;3.85;;
8365;SDS011;4220;42.502;24.188;2023-04-01T14:28:31;5.60;;;3.88;;
8365;SDS011;4220;42.502;24.188;2023-04-01T14:31:15;5.43;;;3.60;;
8365;SDS011;4220;42.502;24.188;2023-04-01T14:34:06;4.35;;;3.30;;
8365;SDS011;4220;42.502;24.188;2023-04-01T14:36:58;7.97;;;3.88;;
8365;SDS011;4220;42.502;24.188;2023-04-01T14:39:48;5.72;;;4.15;;
8365;SDS011;4220;42.502;24.188;2023-04-01T14:48:35;22.08;;;10.55;;
8365;SDS011;4220;42.502;24.188;2023-04-01T14:51:10;20.48;;;11.15;;
8365;SDS011;4220;42.502;24.188;2023-04-01T14:53:43;7.60;;;5.20;;
8365;SDS011;4220;42.502;24.188;2023-04-01T14:56:34;11.48;;;7.78;;
8365;SDS011;4220;42.502;24.188;2023-04-01T14:59:04;9.55;;;7.38;;
8365;SDS011;4220;42.502;24.188;2023-04-01T15:01:37;17.40;;;13.38;;
8365;SDS011;4220;42.502;24.188;2023-04-01T15:04:23;7.75;;;6.22;;
8365;SDS011;4220;42.502;24.188;2023-04-01T15:07:09;6.85;;;5.30;;
8365;SDS011;4220;42.502;24.188;2023-04-01T15:09:54;25.05;;;20.00;;
8365;SDS011;4220;42.502;24.188;2023-04-01T15:12:29;28.10;;;22.20;;
8365;SDS011;4220;42.502;24.188;2023-04-01T15:17:55;14.70;;;10.02;;
8365;SDS011;4220;42.502;24.188;2023-04-01T15:20:43;7.28;;;5.82;;
8365;SDS011;4220;42.502;24.188;2023-04-01T15:23:23;9.43;;;6.07;;
8365;SDS011;4220;42.502;24.188;2023-04-01T15:26:08;5.72;;;4.22;;
8365;SDS011;4220;42.502;24.188;2023-04-01T15:28:43;5.75;;;4.53;;
8365;SDS011;4220;42.502;24.188;2023-04-01T15:31:16;8.65;;;6.03;;
8365;SDS011;4220;42.502;24.188;2023-04-01T15:36:43;6.35;;;3.90;;
8365;SDS011;4220;42.502;24.188;2023-04-01T15:39:18;8.30;;;5.47;;
8365;SDS011;4220;42.502;24.188;2023-04-01T15:41:53;6.78;;;4.65;;
8365;SDS011;4220;42.502;24.188;2023-04-01T15:44:46;27.35;;;14.68;;
8365;SDS011;4220;42.502;24.188;2023-04-01T15:53:23;10.50;;;7.60;;
8365;SDS011;4220;42.502;24.188;2023-04-01T15:56:22;14.15;;;8.23;;
8365;SDS011;4220;42.502;24.188;2023-04-01T15:58:58;4.00;;;2.58;;
8365;SDS011;4220;42.502;24.188;2023-04-01T16:01:35;5.65;;;3.50;;
8365;SDS011;4220;42.502;24.188;2023-04-01T16:04:15;7.80;;;4.95;;
8365;SDS011;4220;42.502;24.188;2023-04-01T16:07:03;10.20;;;7.00;;
8365;SDS011;4220;42.502;24.188;2023-04-01T16:09:39;15.60;;;10.00;;
8365;SDS011;4220;42.502;24.188;2023-04-01T16:12:21;6.32;;;4.35;;
8365;SDS011;4220;42.502;24.188;2023-04-01T16:15:05;10.13;;;8.02;;
8365;SDS011;4220;42.502;24.188;2023-04-01T16:17:48;8.65;;;6.38;;
8365;SDS011;4220;42.502;24.188;2023-04-01T16:20:40;12.80;;;11.50;;
8365;SDS011;4220;42.502;24.188;2023-04-01T16:23:13;141.65;;;108.65;;
8365;SDS011;4220;42.502;24.188;2023-04-01T16:25:46;36.20;;;29.40;;
8365;SDS011;4220;42.502;24.188;2023-04-01T16:28:21;14.85;;;11.52;;
8365;SDS011;4220;42.502;24.188;2023-04-01T16:30:55;10.85;;;9.70;;
8365;SDS011;4220;42.502;24.188;2023-04-01T16:33:30;18.45;;;14.45;;
8365;SDS011;4220;42.502;24.188;2023-04-01T16:36:06;19.40;;;15.13;;
8365;SDS011;4220;42.502;24.188;2023-04-01T16:38:38;14.00;;;10.98;;
8365;SDS011;4220;42.502;24.188;2023-04-01T16:41:11;251.85;;;172.10;;
8365;SDS011;4220;42.502;24.188;2023-04-01T16:43:43;227.23;;;162.93;;
8365;SDS011;4220;42.502;24.188;2023-04-01T16:49:03;40.85;;;32.42;;
8365;SDS011;4220;42.502;24.188;2023-04-01T16:51:44;19.95;;;12.18;;
8365;SDS011;4220;42.502;24.188;2023-04-01T16:54:16;15.35;;;11.18;;
8365;SDS011;4220;42.502;24.188;2023-04-01T16:56:54;8.23;;;6.00;;
8365;SDS011;4220;42.502;24.188;2023-04-01T16:59:33;3.67;;;3.35;;
8365;SDS011;4220;42.502;24.188;2023-04-01T17:02:02;4.32;;;2.92;;
8365;SDS011;4220;42.502;24.188;2023-04-01T17:04:37;9.27;;;6.87;;
8365;SDS011;4220;42.502;24.188;2023-04-01T17:07:20;5.43;;;2.80;;
8365;SDS011;4220;42.502;24.188;2023-04-01T17:09:58;3.53;;;2.43;;
8365;SDS011;4220;42.502;24.188;2023-04-01T17:12:42;4.40;;;3.47;;
8365;SDS011;4220;42.502;24.188;2023-04-01T17:15:18;3.40;;;3.03;;